Time;durP1;ratioP1;P1;durP2;ratioP2;P2;SDS_P1;SDS_P2;PMS_P1;PMS_P2;Temp;Humidity;BMP_temperature;BMP_pressure;BME280_temperature;BME280_humidity;BME280_pressure;Samples;Min_cycle;Max_cycle;Signal;HPM_P1;HPM_P2
2023/05/08 00:01:37;;;;;;;17.15;14.40;;;;;;;;;;6168304;23;20377;-78
2023/05/08 00:04:03;;;;;;;18.33;14.98;;;;;;;;;;6218001;23;20381;-77
2023/05/08 00:06:29;;;;;;;16.10;14.40;;;;;;;;;;6217098;23;20366;-78
2023/05/08 00:08:56;;;;;;;18.95;14.80;;;;;;;;;;6193756;23;20373;-78
2023/05/08 00:11:22;;;;;;;18.63;15.17;;;;;;;;;;6217237;23;20473;-78
2023/05/08 00:13:48;;;;;;;16.33;14.35;;;;;;;;;;6193369;23;20401;-78
2023/05/08 00:16:14;;;;;;;16.80;14.57;;;;;;;;;;6218156;23;20665;-77
2023/05/08 00:18:40;;;;;;;16.77;14.75;;;;;;;;;;6192294;23;20696;-76
2023/05/08 00:21:06;;;;;;;17.40;15.02;;;;;;;;;;6191898;23;20857;-76
2023/05/08 00:23:33;;;;;;;22.58;15.13;;;;;;;;;;6218298;23;20386;-76
2023/05/08 00:25:59;;;;;;;18.45;15.55;;;;;;;;;;6192619;23;20362;-76
2023/05/08 00:28:25;;;;;;;18.10;16.02;;;;;;;;;;6217629;23;20362;-76
2023/05/08 00:30:51;;;;;;;18.83;15.55;;;;;;;;;;6216577;23;20416;-76
2023/05/08 00:33:18;;;;;;;18.17;15.80;;;;;;;;;;6215934;23;20723;-77
2023/05/08 00:35:44;;;;;;;19.20;15.52;;;;;;;;;;6191576;23;20392;-77
2023/05/08 00:38:10;;;;;;;18.75;15.73;;;;;;;;;;6218182;23;20424;-76
2023/05/08 00:40:36;;;;;;;18.57;16.13;;;;;;;;;;6192419;23;20462;-76
2023/05/08 00:43:02;;;;;;;17.55;15.32;;;;;;;;;;6192263;23;20417;-76
2023/05/08 00:45:35;;;;;;;17.42;15.52;;;11.90;99.90;;;;;;6192883;23;20882;-77
2023/05/08 00:48:01;;;;;;;17.85;15.50;;;;;;;;;;6215435;23;20993;-76
2023/05/08 00:50:27;;;;;;;19.35;15.32;;;;;;;;;;6217562;23;20831;-76
2023/05/08 00:52:55;;;;;;;19.63;16.05;;;11.90;99.90;;;;;;6216628;23;20371;-77
2023/05/08 00:55:22;;;;;;;20.52;16.27;;;;;;;;;;6217128;23;20432;-76
2023/05/08 00:57:48;;;;;;;18.02;16.13;;;;;;;;;;6217586;23;20366;-77
2023/05/08 01:00:16;;;;;;;18.30;16.25;;;11.70;99.90;;;;;;6216555;23;20447;-77
2023/05/08 01:02:43;;;;;;;20.15;15.93;;;;;;;;;;6216625;23;20366;-77
2023/05/08 01:05:09;;;;;;;19.15;16.33;;;;;;;;;;6216806;23;20396;-76
2023/05/08 01:07:35;;;;;;;21.02;16.60;;;;;;;;;;6191521;23;20855;-76
2023/05/08 01:10:01;;;;;;;18.30;16.20;;;;;;;;;;6216926;23;20373;-76
2023/05/08 01:12:34;;;;;;;19.02;16.02;;;;;;;;;;6218080;23;20374;-76
2023/05/08 01:15:26;;;;;;;19.15;16.38;;;11.70;99.90;;;;;;6215949;23;20369;-77
2023/05/08 01:18:04;;;;;;;18.83;16.20;;;;;;;;;;6217414;23;20370;-77
2023/05/08 01:20:30;;;;;;;19.42;16.90;;;;;;;;;;6191899;23;20827;-77
2023/05/08 01:22:59;;;;;;;19.55;16.17;;;;;;;;;;6216076;23;20696;-77
2023/05/08 01:25:49;;;;;;;19.13;16.45;;;11.40;99.90;;;;;;6191906;23;20401;-77
2023/05/08 01:28:35;;;;;;;21.15;17.40;;;;;;;;;;6191102;23;20674;-77
2023/05/08 01:31:50;;;;;;;19.63;17.53;;;11.20;99.90;;;;;;6217193;23;20704;-77
2023/05/08 01:34:31;;;;;;;20.23;17.75;;;11.30;99.90;;;;;;6217561;23;20374;-77
2023/05/08 01:37:04;;;;;;;20.77;17.40;;;11.30;99.90;;;;;;6192930;23;20743;-77
2023/05/08 01:39:50;;;;;;;22.17;18.52;;;;;;;;;;6216854;23;20405;-77
2023/05/08 01:42:31;;;;;;;20.15;17.40;;;;;;;;;;6215832;23;20369;-77
2023/05/08 01:45:00;;;;;;;24.40;16.80;;;;;;;;;;6191606;23;20778;-77
2023/05/08 01:47:28;;;;;;;19.77;17.33;;;;;;;;;;6216671;23;20362;-77
2023/05/08 01:50:07;;;;;;;19.80;17.70;;;;;;;;;;6217083;23;20688;-78
2023/05/08 01:58:33;;;;;;;20.60;17.98;;;;;;;;;;6187907;22;20415;-76
2023/05/08 02:04:00;;;;;;;19.90;16.98;;;;;;;;;;6161000;22;20430;-78
2023/05/08 02:06:27;;;;;;;20.27;17.13;;;;;;;;;;6272559;22;20395;-77
2023/05/08 02:08:54;;;;;;;19.85;17.70;;;;;;;;;;6268316;22;20363;-76
2023/05/08 02:11:20;;;;;;;20.50;17.53;;;;;;;;;;6270729;22;20384;-77
2023/05/08 02:13:47;;;;;;;20.10;17.30;;;;;;;;;;6246916;22;20745;-77
2023/05/08 02:16:14;;;;;;;20.98;17.40;;;;;;;;;;6272841;22;20450;-76
2023/05/08 02:18:45;;;;;;;20.48;17.73;;;11.00;99.90;;;;;;6272511;22;20360;-76
2023/05/08 02:21:12;;;;;;;20.73;18.00;;;;;;;;;;6272775;22;20392;-75
2023/05/08 02:23:38;;;;;;;22.77;18.23;;;;;;;;;;6271341;22;20387;-79
2023/05/08 02:26:04;;;;;;;24.40;18.57;;;;;;;;;;6274261;22;20357;-77
2023/05/08 02:28:32;;;;;;;21.02;18.05;;;;;;;;;;6248934;22;20359;-78
2023/05/08 02:30:59;;;;;;;21.38;18.38;;;10.90;99.90;;;;;;6274409;22;20426;-78
2023/05/08 02:33:27;;;;;;;21.65;18.30;;;;;;;;;;6247694;22;20906;-78
2023/05/08 02:35:55;;;;;;;21.10;18.52;;;10.70;99.90;;;;;;6275170;22;20360;-79
2023/05/08 02:38:23;;;;;;;21.52;17.45;;;;;;;;;;6274385;22;20396;-78
2023/05/08 02:40:53;;;;;;;22.60;18.87;;;11.00;99.90;;;;;;6274401;22;20425;-78
2023/05/08 02:43:19;;;;;;;21.90;17.95;;;;;;;;;;6273645;22;20371;-78
2023/05/08 02:45:48;;;;;;;22.08;18.40;;;;;;;;;;6274330;22;20418;-78
2023/05/08 02:48:20;;;;;;;21.08;18.23;;;;;;;;;;6273048;22;20367;-78
2023/05/08 02:51:18;;;;;;;21.35;17.98;;;10.30;99.90;;;;;;6271796;22;20399;-77
2023/05/08 02:53:52;;;;;;;23.00;19.03;;;;;;;;;;6272596;22;20367;-77
2023/05/08 02:56:25;;;;;;;22.23;18.83;;;;;;;;;;6274166;22;20447;-77
2023/05/08 02:59:13;;;;;;;21.10;18.63;;;10.60;99.90;;;;;;6248181;22;20366;-79
2023/05/08 03:01:56;;;;;;;21.30;18.60;;;;;;;;;;6273061;22;20396;-78
2023/05/08 03:04:27;;;;;;;23.63;19.47;;;10.50;99.90;;;;;;6237201;23;20405;-78
2023/05/08 03:06:55;;;;;;;22.30;18.95;;;;;;;;;;6241701;23;20440;-78
2023/05/08 03:09:25;;;;;;;22.08;18.58;;;;;;;;;;6243141;23;20362;-78
2023/05/08 03:11:53;;;;;;;22.65;19.27;;;;;;;;;;6242189;23;20389;-78
2023/05/08 03:14:24;;;;;;;23.63;19.25;;;10.40;99.90;;;;;;6242574;23;20377;-76
2023/05/08 03:16:52;;;;;;;23.05;19.13;;;;;;;;;;6218017;23;20369;-78
2023/05/08 03:19:38;;;;;;;23.38;18.98;;;10.60;99.90;;;;;;6242569;23;20370;-78
2023/05/08 03:22:06;;;;;;;23.75;18.92;;;10.60;99.90;;;;;;6241552;23;20374;-78
2023/05/08 03:24:35;;;;;;;21.45;18.30;;;;;;;;;;6216820;23;20405;-77
2023/05/08 03:27:02;;;;;;;23.88;19.83;;;9.80;99.90;;;;;;6244171;23;20436;-78
2023/05/08 03:29:29;;;;;;;22.63;18.90;;;;;;;;;;6244690;23;20394;-77
2023/05/08 03:31:57;;;;;;;22.85;19.33;;;10.10;99.90;;;;;;6242417;23;20422;-77
2023/05/08 03:34:24;;;;;;;23.20;18.83;;;10.20;99.90;;;;;;6244511;23;20384;-77
2023/05/08 03:36:50;;;;;;;23.17;18.70;;;;;;;;;;6245496;22;20355;-77
2023/05/08 03:39:16;;;;;;;23.00;19.10;;;;;;;;;;6244843;23;20372;-77
2023/05/08 03:41:43;;;;;;;22.47;19.43;;;;;;;;;;6219938;23;20390;-78
2023/05/08 03:44:09;;;;;;;24.08;18.90;;;10.10;99.90;;;;;;6245334;23;20422;-78
2023/05/08 03:46:36;;;;;;;22.50;19.08;;;;;;;;;;6243983;23;20416;-77
2023/05/08 03:49:03;;;;;;;22.42;18.90;;;10.00;99.90;;;;;;6244393;23;20449;-80
2023/05/08 03:51:31;;;;;;;22.30;18.75;;;;;;;;;;6243896;23;20362;-77
2023/05/08 03:53:57;;;;;;;23.67;18.42;;;;;;;;;;6244940;23;20366;-77
2023/05/08 03:56:23;;;;;;;23.45;19.73;;;;;;;;;;6194483;23;20374;-77
2023/05/08 03:58:55;;;;;;;21.98;18.55;;;;;;;;;;6219259;23;20895;-78
2023/05/08 04:01:31;;;;;;;23.27;18.67;;;9.70;99.90;;;;;;6243315;23;20365;-78
2023/05/08 04:04:03;;;;;;;22.95;18.65;;;;;;;;;;6219365;23;20874;-78
2023/05/08 04:06:36;;;;;;;22.83;18.85;;;9.70;99.90;;;;;;6244172;23;20378;-78
2023/05/08 04:09:28;;;;;;;23.38;19.38;;;;;;;;;;6244697;23;20365;-78
2023/05/08 04:12:08;;;;;;;24.15;19.15;;;10.00;99.90;;;;;;6240384;23;20365;-78
2023/05/08 04:14:41;;;;;;;22.50;19.33;;;;;;;;;;6217235;23;20370;-79
2023/05/08 04:17:10;;;;;;;24.65;19.48;;;9.90;99.90;;;;;;6219814;23;20373;-78
2023/05/08 04:19:38;;;;;;;22.38;18.85;;;;;;;;;;6243348;23;20665;-77
2023/05/08 04:22:06;;;;;;;23.65;19.02;;;;;;;;;;6244350;23;20888;-76
2023/05/08 04:24:36;;;;;;;23.63;19.10;;;10.10;99.90;;;;;;6244614;23;20395;-77
2023/05/08 04:27:02;;;;;;;22.35;18.85;;;;;;;;;;6244964;23;20366;-78
2023/05/08 04:29:29;;;;;;;22.50;18.30;;;;;;;;;;6218083;23;20373;-78
2023/05/08 04:31:56;;;;;;;22.05;18.33;;;10.00;99.90;;;;;;6193773;23;20457;-76
2023/05/08 04:34:22;;;;;;;20.90;17.38;;;;;;;;;;6219611;23;20377;-78
2023/05/08 04:36:48;;;;;;;23.50;18.20;;;;;;;;;;6218439;23;20366;-78
2023/05/08 04:39:14;;;;;;;23.10;18.92;;;;;;;;;;6243390;23;20850;-78
2023/05/08 04:41:41;;;;;;;20.50;17.27;;;;;;;;;;6218506;23;20727;-77
2023/05/08 04:44:07;;;;;;;20.75;17.13;;;;;;;;;;6244106;23;20397;-77
2023/05/08 04:46:33;;;;;;;21.95;17.25;;;;;;;;;;6244703;23;20366;-79
2023/05/08 04:48:59;;;;;;;19.77;17.03;;;;;;;;;;6244789;23;20401;-78
2023/05/08 04:51:25;;;;;;;22.92;17.27;;;;;;;;;;6219167;23;20362;-77
2023/05/08 04:53:51;;;;;;;20.63;17.63;;;;;;;;;;6219174;23;20366;-77
2023/05/08 04:56:18;;;;;;;20.23;17.27;;;;;;;;;;6244191;23;20461;-76
2023/05/08 04:58:44;;;;;;;20.33;16.77;;;;;;;;;;6243528;23;20428;-77
2023/05/08 05:01:10;;;;;;;19.13;17.02;;;;;;;;;;6244352;23;20370;-77
2023/05/08 05:03:36;;;;;;;19.17;16.33;;;;;;;;;;6194900;23;20445;-78
2023/05/08 05:06:02;;;;;;;19.10;16.30;;;;;;;;;;6219859;23;20382;-78
2023/05/08 05:08:28;;;;;;;20.10;17.10;;;;;;;;;;6219270;23;20366;-77
2023/05/08 05:10:54;;;;;;;20.08;16.83;;;;;;;;;;6244080;23;20362;-77
2023/05/08 05:13:21;;;;;;;18.77;16.20;;;;;;;;;;6218620;23;20365;-78
2023/05/08 05:15:47;;;;;;;19.33;16.27;;;;;;;;;;6219239;23;20648;-76
2023/05/08 05:18:13;;;;;;;19.25;15.82;;;;;;;;;;6243068;23;20412;-76
2023/05/08 05:20:39;;;;;;;19.08;15.55;;;;;;;;;;6242403;23;20389;-77
2023/05/08 05:23:05;;;;;;;18.88;16.17;;;;;;;;;;6240650;23;20392;-75
2023/05/08 05:25:31;;;;;;;18.23;15.10;;;;;;;;;;6216635;23;20386;-77
2023/05/08 05:27:57;;;;;;;17.58;15.05;;;;;;;;;;6217849;23;20441;-77
2023/05/08 05:30:23;;;;;;;18.20;15.13;;;;;;;;;;6242375;23;20366;-77
2023/05/08 05:32:49;;;;;;;17.85;15.55;;;;;;;;;;6215363;23;20476;-77
2023/05/08 05:35:15;;;;;;;18.35;15.38;;;;;;;;;;6243335;23;20373;-77
2023/05/08 05:37:41;;;;;;;18.08;14.35;;;;;;;;;;6214916;23;20366;-77
2023/05/08 05:40:08;;;;;;;17.10;15.00;;;;;;;;;;6216842;23;20366;-77
2023/05/08 05:42:34;;;;;;;16.13;14.35;;;;;;;;;;6214998;23;20381;-75
2023/05/08 05:45:00;;;;;;;17.75;15.20;;;;;;;;;;6240668;23;20893;-74
2023/05/08 05:47:27;;;;;;;17.88;14.88;;;;;;;;;;6215510;23;20661;-77
2023/05/08 05:49:53;;;;;;;16.75;14.52;;;;;;;;;;6240197;23;20366;-77
2023/05/08 05:52:19;;;;;;;17.67;14.18;;;;;;;;;;6212517;23;20447;-78
2023/05/08 05:54:45;;;;;;;18.00;14.95;;;;;;;;;;6239667;23;20376;-77
2023/05/08 05:57:12;;;;;;;15.55;13.82;;;;;;;;;;6242433;23;20456;-77
2023/05/08 05:59:38;;;;;;;18.13;13.82;;;;;;;;;;6239674;23;20457;-77
2023/05/08 06:02:05;;;;;;;18.35;15.77;;;;;;;;;;6216199;23;20369;-77
2023/05/08 06:04:32;;;;;;;15.30;13.57;;;;;;;;;;6215113;23;20390;-77
2023/05/08 06:06:58;;;;;;;15.73;13.60;;;;;;;;;;6241373;23;20389;-77
2023/05/08 06:09:24;;;;;;;15.65;13.52;;;;;;;;;;6217223;23;20369;-77
2023/05/08 06:11:50;;;;;;;17.55;13.30;;;;;;;;;;6216349;23;20410;-77
2023/05/08 06:14:16;;;;;;;17.80;13.52;;;;;;;;;;6214824;23;20459;-77
2023/05/08 06:16:43;;;;;;;16.50;13.77;;;;;;;;;;6216191;23;20365;-77
2023/05/08 06:19:10;;;;;;;16.85;13.68;;;;;;;;;;6215755;23;20420;-76
2023/05/08 06:21:36;;;;;;;16.23;13.77;;;;;;;;;;6214509;23;20370;-77
2023/05/08 06:24:02;;;;;;;17.48;13.32;;;;;;;;;;6241667;23;20390;-77
2023/05/08 06:26:28;;;;;;;14.38;12.63;;;;;;;;;;6216191;23;20358;-76
2023/05/08 06:28:55;;;;;;;16.30;13.70;;;;;;;;;;6216489;23;20397;-77
2023/05/08 06:31:21;;;;;;;14.73;13.13;;;;;;;;;;6242275;23;20399;-76
2023/05/08 06:33:47;;;;;;;14.45;12.80;;;;;;;;;;6240977;23;20381;-77
2023/05/08 06:36:13;;;;;;;15.75;13.45;;;;;;;;;;6241955;23;20370;-77
2023/05/08 06:38:39;;;;;;;17.80;13.43;;;;;;;;;;6191676;23;20370;-77
2023/05/08 06:41:05;;;;;;;15.20;13.53;;;;;;;;;;6243096;23;20877;-78
2023/05/08 06:43:32;;;;;;;15.07;12.68;;;;;;;;;;6240557;23;20447;-77
2023/05/08 06:45:58;;;;;;;15.73;13.40;;;;;;;;;;6216724;23;20362;-77
2023/05/08 06:48:27;;;;;;;14.75;13.10;;;;;;;;;;6241129;23;20365;-78
2023/05/08 06:50:54;;;;;;;15.10;12.85;;;;;;;;;;6215496;23;20366;-77
2023/05/08 06:53:20;;;;;;;14.75;12.95;;;;;;;;;;6241131;23;20366;-77
2023/05/08 06:55:46;;;;;;;16.40;12.85;;;;;;;;;;6214556;23;20851;-78
2023/05/08 06:58:12;;;;;;;14.60;13.10;;;;;;;;;;6214163;23;20377;-76
2023/05/08 07:00:38;;;;;;;15.65;13.38;;;;;;;;;;6238619;23;20427;-75
2023/05/08 07:03:04;;;;;;;15.70;13.32;;;;;;;;;;6243489;23;20397;-78
2023/05/08 07:05:31;;;;;;;14.05;11.63;;;;;;;;;;6193103;23;20871;-78
2023/05/08 07:07:57;;;;;;;13.77;12.13;;;;;;;;;;6219075;23;20827;-79
2023/05/08 07:10:23;;;;;;;16.77;12.40;;;;;;;;;;6219972;23;20397;-79
2023/05/08 07:12:49;;;;;;;13.20;11.80;;;;;;;;;;6242975;23;20373;-78
2023/05/08 07:15:15;;;;;;;14.83;12.93;;;;;;;;;;6218898;23;20463;-79
2023/05/08 07:17:41;;;;;;;14.45;12.93;;;;;;;;;;6245075;23;20850;-78
2023/05/08 07:20:08;;;;;;;13.68;12.27;;;;;;;;;;6245647;23;20453;-78
2023/05/08 07:22:34;;;;;;;14.27;12.23;;;;;;;;;;6193540;23;20365;-77
2023/05/08 07:25:00;;;;;;;17.95;12.40;;;;;;;;;;6247152;23;20397;-75
2023/05/08 07:27:27;;;;;;;14.85;12.68;;;;;;;;;;6244472;23;20651;-78
2023/05/08 07:29:53;;;;;;;14.45;12.23;;;;;;;;;;6243687;23;20421;-79
2023/05/08 07:32:19;;;;;;;14.13;11.80;;;;;;;;;;6243817;23;20858;-79
2023/05/08 07:34:45;;;;;;;14.13;11.95;;;;;;;;;;6239762;23;20520;-78
2023/05/08 07:37:11;;;;;;;13.77;11.82;;;;;;;;;;6242837;23;20669;-77
2023/05/08 07:39:37;;;;;;;15.18;12.10;;;;;;;;;;6216348;23;20370;-76
2023/05/08 07:42:04;;;;;;;14.45;12.18;;;;;;;;;;6215940;23;20378;-76
2023/05/08 07:44:32;;;;;;;15.43;12.40;;;;;;;;;;6243726;22;20385;-75
2023/05/08 07:46:58;;;;;;;20.23;13.05;;;;;;;;;;6196464;23;20899;-77
2023/05/08 07:49:24;;;;;;;13.80;11.88;;;;;;;;;;6242758;23;20441;-77
2023/05/08 07:51:51;;;;;;;13.68;12.27;;;;;;;;;;6220409;23;20371;-75
2023/05/08 07:54:17;;;;;;;13.25;11.85;;;;;;;;;;6249204;23;20366;-78
2023/05/08 07:56:43;;;;;;;13.88;12.38;;;;;;;;;;6219354;23;20703;-77
2023/05/08 07:59:09;;;;;;;13.82;12.15;;;;;;;;;;6219594;23;20453;-77
2023/05/08 08:01:35;;;;;;;14.70;12.90;;;;;;;;;;6218889;23;20491;-76
2023/05/08 08:04:01;;;;;;;14.20;12.30;;;;;;;;;;6244209;23;20382;-76
2023/05/08 08:06:27;;;;;;;14.65;12.40;;;;;;;;;;6241419;23;20378;-76
2023/05/08 08:08:53;;;;;;;13.90;11.95;;;;;;;;;;6241182;23;20366;-75
2023/05/08 08:11:20;;;;;;;14.20;12.00;;;;;;;;;;6191388;23;20362;-76
2023/05/08 08:13:46;;;;;;;13.90;12.20;;;;;;;;;;6215736;23;20388;-77
2023/05/08 08:16:12;;;;;;;17.40;11.90;;;;;;;;;;6241288;23;20423;-78
2023/05/08 08:18:38;;;;;;;14.02;11.75;;;;;;;;;;6213327;23;20397;-77
2023/05/08 08:21:05;;;;;;;12.82;11.50;;;;;;;;;;6214114;23;20370;-77
2023/05/08 08:23:31;;;;;;;13.25;11.77;;;;;;;;;;6241726;23;20436;-77
2023/05/08 08:25:57;;;;;;;13.52;12.13;;;;;;;;;;6240642;23;20432;-76
2023/05/08 08:28:24;;;;;;;13.50;12.10;;;;;;;;;;6241214;23;20374;-76
2023/05/08 08:30:50;;;;;;;13.80;12.40;;;;;;;;;;6216225;23;20369;-77
2023/05/08 08:33:16;;;;;;;14.57;12.75;;;;;;;;;;6212743;23;20362;-77
2023/05/08 08:35:42;;;;;;;15.43;12.25;;;;;;;;;;6238664;23;20373;-78
2023/05/08 08:38:08;;;;;;;14.15;12.35;;;;;;;;;;6239213;23;20473;-77
2023/05/08 08:40:41;;;;;;;14.00;12.23;;;;;;;;;;6241481;23;20366;-77
2023/05/08 08:43:07;;;;;;;15.32;12.88;;;15.30;99.90;;;;;;6215598;23;20370;-76
2023/05/08 08:45:34;;;;;;;16.27;12.90;;;;;;;;;;6189997;23;20470;-78
2023/05/08 08:48:01;;;;;;;15.02;12.90;;;;;;;;;;6241674;23;20385;-76
2023/05/08 08:50:34;;;;;;;14.45;12.77;;;16.30;99.90;;;;;;6214389;23;20453;-77
2023/05/08 08:53:10;;;;;;;13.50;12.10;;;16.40;99.90;;;;;;6214648;23;20369;-77
2023/05/08 08:55:43;;;;;;;18.08;12.07;;;16.30;99.90;;;;;;6239922;23;20419;-77
2023/05/08 08:58:12;;;;;;;13.35;11.95;;;;;;;;;;6241164;23;20677;-77
2023/05/08 09:00:38;;;;;;;14.07;12.68;;;;;;;;;;6215589;23;20843;-77
2023/05/08 09:03:06;;;;;;;14.65;12.20;;;;;;;;;;6241381;23;20515;-77
2023/05/08 09:05:33;;;;;;;13.50;12.10;;;;;;;;;;6239634;23;20394;-77
2023/05/08 09:07:59;;;;;;;13.60;11.75;;;;;;;;;;6189834;23;20925;-78
2023/05/08 09:10:25;;;;;;;13.32;11.93;;;;;;;;;;6240513;23;20385;-77
2023/05/08 09:12:52;;;;;;;14.45;13.00;;;;;;;;;;6214677;23;20496;-77
2023/05/08 09:15:18;;;;;;;13.90;12.40;;;;;;;;;;6216362;23;20365;-76
2023/05/08 09:17:44;;;;;;;13.80;12.43;;;;;;;;;;6215996;23;20366;-75
2023/05/08 09:20:10;;;;;;;15.13;13.27;;;;;;;;;;6215085;23;20366;-76
2023/05/08 09:22:37;;;;;;;14.18;12.68;;;;;;;;;;6239859;23;20370;-75
2023/05/08 09:25:03;;;;;;;14.38;12.90;;;;;;;;;;6239099;23;20393;-77
2023/05/08 09:27:30;;;;;;;14.48;12.50;;;17.30;99.90;;;;;;6240609;23;20362;-77
2023/05/08 09:30:07;;;;;;;14.55;12.95;;;;;;;;;;6240734;23;20362;-78
2023/05/08 09:32:34;;;;;;;15.18;13.57;;;17.90;99.90;;;;;;6214882;23;20420;-76
2023/05/08 09:35:00;;;;;;;14.48;12.70;;;;;;;;;;6215527;23;20374;-77
2023/05/08 09:37:27;;;;;;;15.75;13.75;;;;;;;;;;6239154;23;20374;-77
2023/05/08 09:39:54;;;;;;;15.23;13.73;;;;;;;;;;6214026;23;20405;-77
2023/05/08 09:42:21;;;;;;;14.77;13.00;;;;;;;;;;6214873;23;20419;-76
2023/05/08 09:44:50;;;;;;;15.38;12.73;;;18.00;99.90;;;;;;6240841;23;20393;-74
2023/05/08 09:47:20;;;;;;;14.90;12.80;;;;;;;;;;6216983;23;20869;-75
2023/05/08 09:50:07;;;;;;;15.23;13.10;;;18.10;99.90;;;;;;6239546;23;20365;-76
2023/05/08 09:52:34;;;;;;;15.57;13.13;;;18.10;99.90;;;;;;6188197;23;20370;-75
2023/05/08 09:55:03;;;;;;;14.95;13.35;;;;;;;;;;6241087;23;20397;-74
2023/05/08 09:57:30;;;;;;;14.93;13.32;;;18.90;99.90;;;;;;6214958;23;20681;-76
2023/05/08 10:00:17;;;;;;;15.52;13.93;;;18.90;99.90;;;;;;6189162;23;20376;-76
2023/05/08 10:02:55;;;;;;;15.52;13.93;;;19.20;99.90;;;;;;6214332;23;20398;-74
2023/05/08 10:05:26;;;;;;;15.95;13.07;;;;;;;;;;6240982;23;20723;-76
2023/05/08 10:07:52;;;;;;;14.50;13.00;;;19.90;99.90;;;;;;6240192;23;20485;-75
2023/05/08 10:10:29;;;;;;;14.13;12.65;;;20.00;99.90;;;;;;6239804;23;20394;-77
2023/05/08 10:12:56;;;;;;;15.27;13.75;;;20.30;99.90;;;;;;6212768;23;20366;-76
2023/05/08 10:15:23;;;;;;;14.60;13.00;;;;;;;;;;6243080;22;20717;-76
2023/05/08 10:17:49;;;;;;;14.38;12.98;;;;;;;;;;6216431;23;20369;-77
2023/05/08 10:20:18;;;;;;;15.52;13.85;;;20.00;99.90;;;;;;6216866;23;20362;-77
2023/05/08 10:22:47;;;;;;;17.08;14.32;;;20.20;99.90;;;;;;6215770;23;20362;-77
2023/05/08 10:25:16;;;;;;;16.65;13.93;;;20.40;99.90;;;;;;6215005;23;20390;-76
2023/05/08 10:27:51;;;;;;;17.45;14.20;;;;;;;;;;6239963;23;20369;-77
2023/05/08 10:30:23;;;;;;;15.32;13.07;;;;;;;;;;6241951;23;20362;-77
2023/05/08 10:32:53;;;;;;;15.33;13.10;;;20.80;99.90;;;;;;6216797;23;20361;-77
2023/05/08 10:35:20;;;;;;;15.57;13.98;;;;;;;;;;6241620;23;20381;-77
2023/05/08 10:37:47;;;;;;;16.95;14.45;;;;;;;;;;6240323;23;20457;-78
2023/05/08 10:40:14;;;;;;;15.77;13.75;;;;;;;;;;6242556;23;20451;-78
2023/05/08 10:42:41;;;;;;;16.00;14.30;;;21.20;99.90;;;;;;6243006;23;20843;-78
2023/05/08 10:45:08;;;;;;;14.57;13.07;;;;;;;;;;6244062;23;20448;-78
2023/05/08 10:47:40;;;;;;;17.25;14.38;;;;;;;;;;6218352;23;20373;-76
2023/05/08 10:50:09;;;;;;;15.70;14.02;;;21.10;99.90;;;;;;6218024;23;20391;-76
2023/05/08 10:52:43;;;;;;;15.75;13.75;;;21.30;99.90;;;;;;6217828;23;20361;-76
2023/05/08 10:55:09;;;;;;;15.68;13.98;;;;;;;;;;6242368;23;20369;-76
2023/05/08 10:57:35;;;;;;;18.75;14.43;;;;;;;;;;6218089;23;20836;-78
2023/05/08 11:00:02;;;;;;;14.57;13.15;;;;;;;;;;6243226;23;20365;-77
2023/05/08 11:02:30;;;;;;;15.25;13.40;;;21.80;99.90;;;;;;6219257;23;20687;-77
2023/05/08 11:05:16;;;;;;;14.82;13.27;;;21.70;99.90;;;;;;6218541;23;20708;-77
2023/05/08 11:08:00;;;;;;;14.85;13.20;;;22.20;99.90;;;;;;6244177;23;20703;-76
2023/05/08 11:10:30;;;;;;;16.67;13.45;;;22.40;99.90;;;;;;6217810;23;20362;-77
2023/05/08 11:12:57;;;;;;;14.77;12.75;;;;;;;;;;6244652;23;20366;-77
2023/05/08 11:15:36;;;;;;;14.40;11.27;;;22.50;99.90;;;;;;6244852;23;20369;-77
2023/05/08 11:18:04;;;;;;;14.45;12.95;;;22.10;99.90;;;;;;6219072;23;20751;-76
2023/05/08 11:20:41;;;;;;;14.10;12.40;;;22.30;99.90;;;;;;6217081;23;20448;-78
2023/05/08 11:23:27;;;;;;;14.93;13.10;;;22.70;99.90;;;;;;6244761;23;20479;-79
2023/05/08 11:26:11;;;;;;;15.38;12.93;;;23.00;99.90;;;;;;6242535;23;20866;-79
2023/05/08 11:28:38;;;;;;;16.43;14.77;;;22.90;99.90;;;;;;6218377;23;20377;-77
2023/05/08 11:31:05;;;;;;;15.40;13.90;;;23.10;99.90;;;;;;6218039;23;20661;-77
2023/05/08 11:33:33;;;;;;;15.50;13.63;;;22.90;99.90;;;;;;6217913;23;20366;-76
2023/05/08 11:36:11;;;;;;;17.15;15.35;;;22.20;99.90;;;;;;6218021;23;20362;-77
2023/05/08 11:38:38;;;;;;;16.23;13.65;;;;;;;;;;6218484;23;20493;-77
2023/05/08 11:41:10;;;;;;;14.95;13.35;;;22.30;99.90;;;;;;6243964;23;20831;-77
2023/05/08 11:44:04;;;;;;;15.77;14.18;;;22.60;99.90;;;;;;6242883;23;20428;-78
2023/05/08 11:46:38;;;;;;;16.90;14.35;;;23.10;99.90;;;;;;6218138;23;20899;-76
2023/05/08 11:49:04;;;;;;;14.80;13.20;;;23.20;99.90;;;;;;6218290;23;20366;-77
2023/05/08 11:51:32;;;;;;;14.43;12.38;;;23.50;99.90;;;;;;6242034;23;20400;-78
2023/05/08 11:53:59;;;;;;;14.53;12.70;;;22.90;99.90;;;;;;6192541;23;20751;-78
2023/05/08 11:56:25;;;;;;;15.18;13.00;;;23.10;99.90;;;;;;6219383;23;20862;-78
2023/05/08 11:59:12;;;;;;;15.63;12.00;;;23.40;99.90;;;;;;6217927;23;20366;-80
2023/05/08 12:01:38;;;;;;;15.13;13.60;;;;;;;;;;6244514;23;20381;-80
2023/05/08 12:04:10;;;;;;;14.90;13.30;;;22.90;99.90;;;;;;6243732;23;20409;-80
2023/05/08 12:06:38;;;;;;;14.95;13.40;;;23.20;99.90;;;;;;6219342;23;20413;-80
2023/05/08 12:09:17;;;;;;;15.25;12.70;;;23.10;99.90;;;;;;6244420;23;20363;-78
2023/05/08 12:11:44;;;;;;;15.23;13.63;;;;;;;;;;6244218;22;20362;-79
2023/05/08 12:14:11;;;;;;;15.15;13.55;;;23.30;99.90;;;;;;6217455;23;20366;-79
2023/05/08 12:16:38;;;;;;;15.53;13.93;;;;;;;;;;6219327;23;20373;-79
2023/05/08 12:19:10;;;;;;;15.98;13.93;;;23.00;99.90;;;;;;6243852;23;20365;-77
2023/05/08 12:21:36;;;;;;;16.02;14.32;;;;;;;;;;6217646;23;20389;-78
2023/05/08 12:24:07;;;;;;;15.80;14.10;;;22.70;99.90;;;;;;6218670;23;20704;-79
2023/05/08 12:26:37;;;;;;;15.65;14.05;;;23.00;99.90;;;;;;6217210;23;20416;-80
2023/05/08 12:29:07;;;;;;;15.15;13.32;;;;;;;;;;6243705;23;20435;-78
2023/05/08 12:31:36;;;;;;;15.32;12.82;;;;;;;;;;6216641;23;20736;-78
2023/05/08 12:34:06;;;;;;;14.82;13.27;;;23.50;99.90;;;;;;6242633;23;20377;-78
2023/05/08 12:36:36;;;;;;;17.55;13.10;;;;;;;;;;6217201;23;20370;-77
2023/05/08 12:39:13;;;;;;;15.83;12.70;;;23.80;99.90;;;;;;6241724;23;20365;-78
2023/05/08 12:41:50;;;;;;;13.80;12.30;;;24.10;99.90;;;;;;6218145;23;20372;-78
2023/05/08 12:44:17;;;;;;;13.50;12.10;;;24.30;99.90;;;;;;6217884;23;20752;-80
2023/05/08 12:46:52;;;;;;;15.73;13.10;;;24.30;99.90;;;;;;6243646;23;20444;-80
2023/05/08 12:49:29;;;;;;;16.63;13.90;;;23.90;99.90;;;;;;6244157;23;20362;-77
2023/05/08 12:52:01;;;;;;;15.43;13.55;;;;;;;;;;6241421;23;20428;-78
2023/05/08 12:54:35;;;;;;;15.50;13.88;;;24.30;99.90;;;;;;6245368;23;20397;-79
2023/05/08 12:57:05;;;;;;;15.70;13.57;;;24.20;99.90;;;;;;6217257;23;20366;-79
2023/05/08 12:59:32;;;;;;;15.95;14.25;;;24.00;99.90;;;;;;6213501;23;20369;-77
2023/05/08 13:01:57;;;;;;;17.80;15.27;;;24.00;99.90;;;;;;6243398;22;20358;-80
2023/05/08 13:04:23;;;;;;;18.35;15.38;;;23.90;99.90;;;;;;6243151;23;20867;-78
2023/05/08 13:06:56;;;;;;;20.57;16.70;;;24.30;99.90;;;;;;6243343;23;20378;-76
2023/05/08 13:09:22;;;;;;;19.42;17.52;;;23.80;99.90;;;;;;6218023;23;20495;-75
2023/05/08 13:11:48;;;;;;;19.02;16.77;;;23.80;99.90;;;;;;6246059;23;20357;-78
2023/05/08 13:14:14;;;;;;;18.73;16.52;;;24.20;99.90;;;;;;6242554;23;20902;-78
2023/05/08 13:16:50;;;;;;;18.52;16.58;;;24.30;99.90;;;;;;6217068;23;20374;-76
2023/05/08 13:19:16;;;;;;;18.02;16.13;;;24.00;99.90;;;;;;6216171;23;21177;-76
2023/05/08 13:21:46;;;;;;;19.83;17.17;;;23.90;99.90;;;;;;6191227;23;20675;-76
2023/05/08 13:24:15;;;;;;;18.40;16.50;;;23.90;99.90;;;;;;6242450;23;20421;-75
2023/05/08 13:26:42;;;;;;;18.73;16.83;;;23.70;99.90;;;;;;6238943;23;20369;-78
2023/05/08 13:29:07;;;;;;;19.45;16.23;;;23.70;99.90;;;;;;6214937;23;20362;-77
2023/05/08 13:31:33;;;;;;;17.48;15.77;;;24.10;99.90;;;;;;6193173;23;20376;-81
2023/05/08 13:33:59;;;;;;;18.83;16.93;;;24.20;99.90;;;;;;6245128;23;20862;-81
2023/05/08 13:36:26;;;;;;;17.13;15.30;;;24.70;99.90;;;;;;6192932;23;20369;-82
2023/05/08 13:38:53;;;;;;;16.77;15.07;;;24.70;99.90;;;;;;6216650;23;20395;-81
2023/05/08 13:41:19;;;;;;;17.45;15.65;;;24.60;99.90;;;;;;6244436;22;20403;-79
2023/05/08 13:43:46;;;;;;;17.10;15.38;;;24.80;99.90;;;;;;6190558;23;20890;-80
2023/05/08 13:46:12;;;;;;;17.07;14.90;;;24.80;99.90;;;;;;6243230;23;20353;-80
2023/05/08 13:48:37;;;;;;;18.55;16.10;;;24.80;99.90;;;;;;6243221;23;20903;-81
2023/05/08 13:51:03;;;;;;;18.27;14.77;;;24.70;99.90;;;;;;6216432;23;20357;-78
2023/05/08 13:53:29;;;;;;;17.20;15.30;;;24.70;99.90;;;;;;6214977;23;20661;-79
2023/05/08 13:55:55;;;;;;;15.33;13.73;;;24.70;99.90;;;;;;6214028;23;20452;-77